Time;durP1;ratioP1;P1;durP2;ratioP2;P2;SDS_P1;SDS_P2;PMS_P1;PMS_P2;Temp;Humidity;BMP_temperature;BMP_pressure;BME280_temperature;BME280_humidity;BME280_pressure;Samples;Min_cycle;Max_cycle;Signal;HPM_P1;HPM_P2
2022/09/11 00:00:46;;;;;;;3.90;1.60;;;;;;;6.55;73.31;99680.84;5072893;28;20139;-82
2022/09/11 00:03:12;;;;;;;2.08;1.65;;;;;;;6.56;73.72;99682.56;5071381;28;20048;-82
2022/09/11 00:05:40;;;;;;;2.00;1.63;;;;;;;6.51;73.46;99666.03;5072930;28;20044;-81
2022/09/11 00:08:07;;;;;;;1.88;1.60;;;;;;;6.65;73.33;99688.28;5055208;28;20040;-80
2022/09/11 00:10:39;;;;;;;1.70;1.60;;;;;;;6.65;73.20;99688.28;5055313;28;20048;-81
2022/09/11 00:13:20;;;;;;;3.95;1.67;;;;;;;6.63;73.43;99687.53;5075015;28;20098;-82
2022/09/11 00:15:48;;;;;;;2.00;1.80;;;;;;;6.59;73.34;99678.03;5059442;28;20052;-81
2022/09/11 00:18:20;;;;;;;2.03;1.63;;;;;;;6.75;73.17;99694.75;5076593;28;20059;-82
2022/09/11 00:20:52;;;;;;;2.75;2.08;;;;;;;6.82;73.16;99696.13;5041988;28;20044;-81
2022/09/11 00:23:19;;;;;;;1.90;1.80;;;;;;;6.88;73.13;99695.75;5075182;28;20123;-82
2022/09/11 00:25:46;;;;;;;1.88;1.77;;;;;;;6.97;72.76;99700.53;5076462;28;20048;-80
2022/09/11 00:28:20;;;;;;;2.05;1.85;;;;;;;7.02;72.74;99703.75;5075022;28;20052;-81
2022/09/11 00:30:56;;;;;;;3.78;1.90;;;;;;;7.08;72.54;99715.00;5058348;28;20094;-81
2022/09/11 00:33:21;;;;;;;1.85;1.75;;;;;;;7.13;72.18;99702.25;5041703;28;20131;-82
2022/09/11 00:35:55;;;;;;;4.57;1.90;;;;;;;6.95;72.56;99669.66;5058628;28;20098;-81
2022/09/11 00:38:21;;;;;;;2.80;1.80;;;;;;;7.06;72.58;99710.59;5058857;28;20041;-81
2022/09/11 00:40:47;;;;;;;1.98;1.77;;;;;;;6.93;72.89;99683.06;5058300;28;20043;-81
2022/09/11 00:43:15;;;;;;;1.85;1.50;;;;;;;6.76;73.21;99676.06;5074398;28;20435;-81
2022/09/11 00:45:43;;;;;;;1.75;1.65;;;;;;;6.96;73.12;99690.84;5058299;28;20104;-81
2022/09/11 00:48:14;;;;;;;2.30;1.85;;;;;;;7.03;73.08;99705.50;5058080;28;20499;-81
2022/09/11 00:50:42;;;;;;;1.65;1.55;;;;;;;7.11;73.03;99701.50;5057998;28;20051;-80
2022/09/11 00:53:12;;;;;;;5.03;2.23;;;;;;;7.06;72.74;99678.69;5058542;28;20071;-82
2022/09/11 00:55:43;;;;;;;4.75;1.63;;;;;;;7.22;72.72;99705.25;5058255;28;20306;-80
2022/09/11 00:58:17;;;;;;;2.53;1.70;;;;;;;7.18;72.89;99695.72;5058073;28;20044;-81
2022/09/11 01:00:44;;;;;;;2.55;1.80;;;;;;;7.17;72.72;99703.78;5057300;28;20041;-80
2022/09/11 01:03:11;;;;;;;2.15;1.75;;;;;;;7.13;73.00;99707.59;5057640;28;20053;-80
2022/09/11 01:05:40;;;;;;;1.50;1.23;;;;;;;7.01;73.40;99699.41;5075652;28;20066;-81
2022/09/11 01:08:06;;;;;;;2.28;1.90;;;;;;;7.04;73.29;99707.19;5057798;28;20068;-80
2022/09/11 01:10:39;;;;;;;3.80;2.00;;;;;;;7.10;73.45;99711.25;5074334;28;20056;-79
2022/09/11 01:13:05;;;;;;;2.80;1.83;;;;;;;7.13;73.27;99719.06;5057397;28;20040;-84
2022/09/11 01:15:37;;;;;;;3.95;1.90;;;;;;;7.12;73.41;99729.81;5073767;28;20040;-83
2022/09/11 01:18:18;;;;;;;2.22;1.67;;;;;;;7.19;73.38;99725.84;5057853;28;20086;-82
2022/09/11 01:21:07;;;;;;;3.60;1.80;;;;;;;7.20;73.30;99727.53;5075305;28;20118;-84
2022/09/11 01:24:08;;;;;;;2.35;2.03;;;;;;;7.12;73.20;99730.66;5056851;28;20044;-81
2022/09/11 01:27:21;;;;;;;3.63;2.10;;;;;;;7.13;73.40;99742.13;5057537;28;20036;-81
2022/09/11 01:29:56;;;;;;;3.42;2.20;;;;;;;7.14;73.57;99733.22;5068714;28;20104;-81
2022/09/11 01:32:33;;;;;;;2.42;2.20;;;;;;;7.18;73.44;99742.72;5074310;28;20457;-82
2022/09/11 01:35:05;;;;;;;3.58;2.22;;;;;;;7.21;73.17;99755.81;5074193;28;20044;-83
2022/09/11 01:37:57;;;;;;;2.30;2.10;;;;;;;7.21;73.36;99753.16;5057234;28;20040;-83
2022/09/11 01:40:36;;;;;;;2.45;2.17;;;;;;;7.19;73.40;99747.09;5073412;28;20519;-82
2022/09/11 01:43:08;;;;;;;2.20;2.00;;;;;;;7.13;73.61;99740.34;5056811;28;20541;-84
2022/09/11 01:45:36;;;;;;;2.67;2.10;;;;;;;7.24;73.34;99759.16;5057161;28;20037;-84
2022/09/11 01:48:04;;;;;;;5.97;2.50;;;;;;;7.10;73.77;99751.16;5056749;28;20041;-84
2022/09/11 01:50:32;;;;;;;3.22;2.67;;;;;;;7.14;73.77;99759.78;5073193;28;20044;-83
2022/09/11 01:53:04;;;;;;;4.00;2.53;;;;;;;7.10;74.20;99763.59;5056649;28;20443;-85
2022/09/11 01:55:44;;;;;;;2.67;2.30;;;;;;;7.06;74.40;99766.41;5073388;28;20086;-82
2022/09/11 01:58:22;;;;;;;3.30;2.15;;;;;;;7.04;74.23;99759.50;5057245;28;20135;-82
2022/09/11 02:00:52;;;;;;;2.70;2.42;;;;;;;6.98;74.71;99754.53;5056480;28;20090;-83
2022/09/11 02:03:35;;;;;;;4.97;2.50;;;;;;;7.06;74.80;99779.72;5056180;28;20062;-83
2022/09/11 02:06:08;;;;;;;3.33;2.70;;;;;;;7.10;74.92;99774.22;5074016;28;20098;-84
2022/09/11 02:08:55;;;;;;;3.22;2.70;;;;;;;7.10;74.75;99779.53;5073731;28;20519;-84
2022/09/11 02:11:23;;;;;;;3.85;2.30;;;;;;;7.17;74.84;99779.09;5073843;28;20068;-83
2022/09/11 02:14:09;;;;;;;3.83;2.80;;;;;;;7.16;74.57;99774.72;5056480;28;20064;-83
2022/09/11 02:16:41;;;;;;;3.85;2.40;;;;;;;7.20;74.87;99780.72;5056371;28;20059;-84
2022/09/11 02:19:11;;;;;;;3.92;2.50;;;;;;;7.20;74.70;99786.88;5056187;28;20044;-82
2022/09/11 02:21:37;;;;;;;3.20;2.55;;;;;;;7.23;74.74;99780.53;5056168;28;20505;-84
2022/09/11 02:24:06;;;;;;;3.13;2.67;;;;;;;7.23;74.74;99785.84;5055565;28;20039;-83
2022/09/11 02:26:38;;;;;;;3.17;2.40;;;;;;;7.29;74.47;99786.31;5072482;28;20263;-84
2022/09/11 02:29:05;;;;;;;5.03;2.65;;;;;;;7.28;74.59;99789.94;5072759;28;20048;-85
2022/09/11 02:31:34;;;;;;;4.25;2.80;;;;;;;7.30;74.41;99777.41;5072412;28;20410;-81
2022/09/11 02:34:00;;;;;;;3.30;2.45;;;;;;;7.33;74.29;99781.69;5055380;28;20051;-83
2022/09/11 02:36:57;;;;;;;11.95;2.90;;;;;;;7.47;74.04;99795.00;5055712;28;20040;-84
2022/09/11 02:39:43;;;;;;;10.65;2.65;;;;;;;7.43;73.96;99790.84;5056192;28;20040;-90
2022/09/11 02:42:37;;;;;;;3.50;2.13;;;;;;;7.41;73.98;99795.41;5055867;28;20044;-84
2022/09/11 02:45:13;;;;;;;8.52;2.65;;;;;;;7.35;74.16;99787.78;5075328;28;20492;-91
2022/09/11 02:48:01;;;;;;;4.78;2.72;;;;;;;7.38;74.29;99800.91;5077521;28;20164;-85
2022/09/11 02:50:42;;;;;;;4.38;2.63;;;;;;;7.45;74.37;99812.03;5073294;28;20052;-79
2022/09/11 02:53:20;;;;;;;4.18;2.70;;;;;;;7.48;74.23;99807.34;5056368;28;20049;-85
2022/09/11 02:56:05;;;;;;;3.38;2.70;;;;;;;7.45;74.03;99802.25;5072835;28;20052;-88
2022/09/11 02:58:44;;;;;;;3.38;2.88;;;;;;;7.62;73.96;99813.66;5056094;28;20068;-90
2022/09/11 03:01:10;;;;;;;4.78;3.00;;;;;;;7.65;73.53;99808.16;5055385;28;20067;-82
2022/09/11 03:03:40;;;;;;;4.85;2.97;;;;;;;7.78;73.25;99806.47;5055719;28;20553;-88
2022/09/11 03:06:12;;;;;;;2.88;2.50;;;;;;;7.97;72.88;99825.69;5055704;28;20044;-86
2022/09/11 03:08:39;;;;;;;4.10;2.95;;;;;;;7.93;72.72;99826.81;5056162;28;20086;-82
2022/09/11 03:11:07;;;;;;;3.67;2.80;;;;;;;7.93;72.65;99829.47;5076506;28;20139;-88
2022/09/11 03:13:34;;;;;;;3.85;2.78;;;;;;;7.82;72.81;99810.63;5072396;28;20513;-87
2022/09/11 03:16:00;;;;;;;3.35;3.03;;;;;;;7.92;72.92;99827.75;5056154;28;20495;-90
2022/09/11 03:18:26;;;;;;;5.13;2.53;;;;;;;7.98;72.76;99826.56;5074130;28;20043;-87
2022/09/11 03:20:52;;;;;;;4.57;2.70;;;;;;;8.10;72.57;99830.25;5073904;28;20049;-86
2022/09/11 03:23:18;;;;;;;4.15;2.70;;;;;;;7.97;72.65;99830.13;5061582;28;20040;-86
2022/09/11 03:25:46;;;;;;;4.18;2.58;;;;;;;8.03;72.80;99835.94;5068474;28;20043;-91
2022/09/11 03:28:12;;;;;;;4.07;2.58;;;;;;;8.13;72.54;99840.72;5083835;28;20419;-92
2022/09/11 03:30:40;;;;;;;4.50;3.00;;;;;;;8.11;72.15;99837.28;5077355;28;20048;-92
2022/09/11 03:33:07;;;;;;;2.63;2.35;;;;;;;8.07;72.40;99822.44;5060425;28;20392;-91
2022/09/11 03:35:34;;;;;;;3.15;2.50;;;;;;;8.39;72.03;99847.97;5075389;28;20066;-88
2022/09/11 03:38:01;;;;;;;3.80;2.67;;;;;;;8.36;71.70;99839.28;5078078;28;20060;-92
2022/09/11 03:40:30;;;;;;;4.05;2.80;;;;;;;8.36;71.63;99847.28;5061558;28;20148;-93
2022/09/11 03:42:58;;;;;;;4.40;2.92;;;;;;;8.44;71.63;99839.69;5061073;28;20072;-91
2022/09/11 03:45:24;;;;;;;3.40;2.38;;;;;;;8.63;71.27;99818.03;5079300;28;20093;-93
2022/09/11 03:47:50;;;;;;;3.90;2.67;;;;;;;8.95;70.38;99835.47;5097014;28;20043;-90
2022/09/11 03:50:16;;;;;;;2.65;2.45;;;;;;;8.96;69.87;99837.19;5097607;28;20052;-92
2022/09/11 03:52:42;;;;;;;7.30;3.00;;;;;;;8.94;69.46;99833.75;5081102;28;20079;-94
2022/09/11 03:55:10;;;;;;;3.15;2.53;;;;;;;9.02;69.54;99835.91;5065123;28;20060;-94
2022/09/11 03:57:37;;;;;;;5.53;2.40;;;;;;;9.16;69.14;99838.53;5098353;28;20040;-93
2022/09/11 04:00:06;;;;;;;4.13;2.30;;;;;;;9.20;69.16;99844.50;5065175;28;20048;-90
2022/09/11 04:02:46;;;;;;;3.13;2.38;;;;;;;9.14;68.88;99836.91;5082011;28;20040;-90
2022/09/11 04:05:16;;;;;;;2.50;2.30;;;;;;;9.27;69.09;99844.97;5064579;28;20064;-90
2022/09/11 04:07:42;;;;;;;3.60;2.28;;;;;;;9.40;68.55;99845.84;5083346;28;20059;-91
2022/09/11 04:10:09;;;;;;;2.28;2.10;;;;;;;9.33;68.20;99839.25;5066246;28;20044;-90
2022/09/11 04:12:36;;;;;;;2.40;2.20;;;;;;;9.36;68.28;99836.34;5067307;28;20052;-93
2022/09/11 04:15:02;;;;;;;3.55;2.10;;;;;;;9.63;68.05;99858.50;5081413;28;20044;-93
2022/09/11 04:17:31;;;;;;;3.35;2.38;;;;;;;9.86;67.85;99858.75;5074623;28;20056;-92
2022/09/11 04:19:57;;;;;;;4.30;2.40;;;;;;;10.12;67.16;99863.16;5093286;28;20087;-93
2022/09/11 04:22:23;;;;;;;3.13;2.17;;;;;;;10.20;66.96;99836.75;5094192;28;20073;-92
2022/09/11 04:24:50;;;;;;;3.22;2.58;;;;;;;10.58;65.96;99853.72;5077073;28;20043;-93
2022/09/11 04:27:17;;;;;;;2.47;2.28;;;;;;;10.67;65.70;99858.38;5076206;28;20095;-93
2022/09/11 04:29:45;;;;;;;3.33;2.07;;;;;;;10.93;65.52;99862.69;5066781;28;20506;-93
2022/09/11 04:32:12;;;;;;;2.83;2.25;;;;;;;10.69;64.42;99853.78;5066104;28;20048;-95
2022/09/11 04:34:40;;;;;;;4.37;2.03;;;;;;;10.59;64.27;99864.28;5062753;28;20047;-93
2022/09/11 04:37:10;;;;;;;2.85;1.70;;;;;;;10.49;64.58;99857.03;5063168;28;20407;-94
2022/09/11 04:39:36;;;;;;;2.25;2.03;;;;;;;10.39;64.52;99841.66;5079646;28;20048;-94
2022/09/11 04:42:06;;;;;;;3.67;2.42;;;;;;;10.65;64.81;99844.28;5062621;28;20492;-94
2022/09/11 04:44:33;;;;;;;3.30;2.58;;;;;;;10.99;64.55;99860.56;5076963;28;20075;-94
2022/09/11 04:46:59;;;;;;;2.47;2.20;;;;;;;11.10;64.10;99863.28;5078282;28;20066;-95
2022/09/11 04:49:26;;;;;;;3.17;2.20;;;;;;;11.36;63.64;99854.19;5086418;28;20055;-95
2022/09/11 04:51:54;;;;;;;2.70;2.10;;;;;;;11.66;62.74;99864.38;5066473;28;20131;-94
2022/09/11 04:54:23;;;;;;;2.25;1.90;;;;;;;11.67;62.40;99849.16;5065743;28;20502;-91
2022/09/11 04:56:50;;;;;;;5.05;1.98;;;;;;;11.81;61.88;99848.09;5078226;28;20079;-92
2022/09/11 04:59:21;;;;;;;5.90;2.28;;;;;;;11.96;61.38;99868.41;5076219;28;20547;-94
2022/09/11 05:02:07;;;;;;;2.28;1.95;;;;;;;12.07;61.28;99862.16;5077401;28;20067;-96
2022/09/11 05:04:37;;;;;;;2.45;1.80;;;;;;;12.18;60.06;99854.16;5061531;28;20036;-94
2022/09/11 05:07:03;;;;;;;3.03;2.22;;;;;;;12.18;60.18;99855.97;5061869;28;20526;-93
2022/09/11 05:09:29;;;;;;;3.40;1.80;;;;;;;12.32;59.93;99870.00;5076806;28;20032;-94
2022/09/11 05:11:56;;;;;;;1.55;1.45;;;;;;;12.52;58.85;99875.59;5059691;28;20139;-94
2022/09/11 05:14:24;;;;;;;1.33;1.30;;;;;;;12.44;58.38;99857.44;5060637;28;20063;-95
2022/09/11 05:16:52;;;;;;;1.85;1.50;;;;;;;12.49;57.78;99866.00;5043554;28;20037;-94
2022/09/11 05:19:21;;;;;;;2.22;1.20;;;;;;;12.70;56.50;99862.56;5059064;28;20143;-94
2022/09/11 05:21:47;;;;;;;1.33;1.23;;;;;;;12.70;56.27;99870.59;5076955;28;20048;-95
2022/09/11 05:24:13;;;;;;;1.15;1.05;;;;;;;12.71;56.20;99865.09;5059479;28;20041;-92
2022/09/11 05:26:40;;;;;;;1.25;1.15;;;;;;;12.90;55.50;99867.19;5058481;28;20514;-95
2022/09/11 05:29:10;;;;;;;4.82;1.50;;;;;;;13.04;55.42;99855.31;5059660;28;20178;-92
2022/09/11 05:31:43;;;;;;;1.60;1.17;;;;;;;13.29;55.52;99857.72;5076305;28;20092;-93
2022/09/11 05:34:14;;;;;;;4.13;1.33;;;;;;;13.28;54.86;99861.38;5059172;28;20049;-92
2022/09/11 05:36:40;;;;;;;1.85;1.40;;;;;;;13.13;54.80;99839.31;5075862;28;20182;-92
2022/09/11 05:39:22;;;;;;;1.65;1.55;;;;;;;12.80;54.31;99831.34;5058461;28;20049;-92
2022/09/11 05:41:52;;;;;;;3.33;1.80;;;;;;;12.67;55.15;99852.94;5060327;28;20040;-91
2022/09/11 05:44:18;;;;;;;1.65;1.20;;;;;;;12.49;55.09;99859.78;5062211;28;20059;-92
2022/09/11 05:46:49;;;;;;;1.90;1.70;;;;;;;12.53;55.20;99863.94;5057546;28;20052;-92
2022/09/11 05:49:16;;;;;;;3.97;1.33;;;;;;;12.29;55.97;99875.59;5058303;28;20059;-90
2022/09/11 05:51:42;;;;;;;4.50;1.40;;;;;;;12.11;56.38;99855.59;5058433;28;20105;-91
2022/09/11 05:54:09;;;;;;;2.55;1.40;;;;;;;11.90;56.57;99831.34;5058629;28;20044;-91
2022/09/11 05:56:35;;;;;;;3.08;1.40;;;;;;;12.11;56.42;99852.91;5057998;28;20052;-89
2022/09/11 05:59:13;;;;;;;4.43;1.58;;;;;;;12.27;56.33;99882.94;5067318;28;20044;-94
2022/09/11 06:01:42;;;;;;;2.90;1.63;;;;;;;11.97;56.83;99847.81;5068379;28;20399;-95
2022/09/11 06:04:18;;;;;;;1.80;1.55;;;;;;;12.05;56.37;99829.31;5084041;28;20036;-96
2022/09/11 06:06:48;;;;;;;1.70;1.60;;;;;;;12.25;56.21;99858.06;5068571;28;20048;-96
2022/09/11 06:09:17;;;;;;;3.33;1.95;;;;;;;12.48;55.97;99884.88;5084635;28;20051;-94
2022/09/11 06:11:46;;;;;;;1.73;1.50;;;;;;;12.67;56.43;99860.97;5085635;28;20048;-94
2022/09/11 06:14:13;;;;;;;1.45;1.35;;;;;;;13.04;54.33;99860.66;5069051;28;20048;-95
2022/09/11 06:16:41;;;;;;;1.30;1.20;;;;;;;13.25;53.71;99869.69;5075736;28;20048;-96
2022/09/11 06:19:13;;;;;;;1.30;1.20;;;;;;;13.20;52.02;99866.50;5075431;28;20107;-95
2022/09/11 06:21:40;;;;;;;1.10;1.10;;;;;;;12.95;52.47;99873.03;5061472;28;20035;-95
2022/09/11 06:24:28;;;;;;;1.85;1.35;;;;;;;12.42;53.16;99853.22;5090914;28;20531;-96
2022/09/11 06:26:55;;;;;;;;;;;;;;;12.61;53.33;99880.25;5076076;28;20045;-94
2022/09/11 06:29:22;;;;;;;1.60;1.23;;;;;;;12.43;54.18;99863.78;5071169;28;19927;-95
2022/09/11 06:31:50;;;;;;;1.33;1.02;;;;;;;12.27;54.24;99845.41;5062199;28;20605;-93
2022/09/11 06:34:19;;;;;;;5.32;1.38;;;;;;;12.56;54.86;99883.31;5059910;28;20396;-93
2022/09/11 06:36:47;;;;;;;1.77;1.10;;;;;;;12.45;53.76;99866.34;5059872;28;20048;-93
2022/09/11 06:39:14;;;;;;;1.05;1.05;;;;;;;12.44;53.83;99846.72;5057963;28;20071;-93
2022/09/11 06:41:40;;;;;;;2.47;1.55;;;;;;;12.50;53.70;99850.75;5058254;28;20048;-92
2022/09/11 06:44:11;;;;;;;1.42;1.33;;;;;;;12.47;52.90;99875.13;5074213;28;20147;-93
2022/09/11 06:46:39;;;;;;;1.20;1.10;;;;;;;12.39;53.15;99865.03;5077369;28;20044;-91
2022/09/11 06:49:07;;;;;;;2.65;1.23;;;;;;;12.35;53.33;99842.97;5061666;28;20189;-93
2022/09/11 06:51:53;;;;;;;1.42;1.33;;;;;;;12.60;53.47;99825.78;5078154;28;20048;-96
2022/09/11 06:54:20;;;;;;;1.30;0.98;;;;;;;13.02;52.98;99868.00;5063526;28;20044;-95
2022/09/11 06:56:46;;;;;;;1.65;0.90;;;;;;;13.02;51.89;99841.19;5064553;28;20070;-93
2022/09/11 06:59:13;;;;;;;1.05;1.05;;;;;;;13.17;52.07;99834.53;5058710;28;20488;-94
2022/09/11 07:01:40;;;;;;;4.63;1.20;;;;;;;13.33;51.19;99867.22;5060042;28;20154;-95
2022/09/11 07:04:06;;;;;;;2.22;1.20;;;;;;;13.21;51.47;99836.00;5062418;28;20040;-94
2022/09/11 07:06:34;;;;;;;5.05;2.28;;;;;;;13.46;50.94;99860.81;5059734;28;20080;-93
2022/09/11 07:09:01;;;;;;;1.42;1.30;;;;;;;13.32;50.88;99833.28;5080320;28;20052;-93
2022/09/11 07:11:50;;;;;;;3.47;1.80;;;;;;;13.20;50.02;99807.44;5072253;28;20040;-93
2022/09/11 07:14:20;;;;;;;1.95;1.35;;;;;;;13.13;49.57;99811.63;5062650;28;20044;-95
2022/09/11 07:16:49;;;;;;;3.97;1.27;;;;;;;13.24;48.89;99819.66;5061303;28;20036;-93
2022/09/11 07:19:17;;;;;;;1.02;1.02;;;;;;;13.28;48.72;99810.38;5071747;28;20090;-94
2022/09/11 07:21:43;;;;;;;0.70;0.70;;;;;;;13.26;48.36;99839.16;5087578;28;20083;-94
2022/09/11 07:24:12;;;;;;;0.85;0.82;;;;;;;12.57;48.94;99836.75;5079775;28;20189;-93
2022/09/11 07:26:40;;;;;;;0.98;0.80;;;;;;;12.14;49.51;99813.34;5071483;28;20044;-93
2022/09/11 07:29:14;;;;;;;5.28;2.42;;;;;;;11.91;50.30;99823.19;5067983;28;20050;-94
2022/09/11 07:31:41;;;;;;;7.30;3.83;;;;;;;11.97;51.28;99858.53;5066257;28;20119;-93
2022/09/11 07:34:09;;;;;;;7.05;3.58;;;;;;;11.76;51.25;99829.69;5065233;28;20047;-94
2022/09/11 07:36:36;;;;;;;8.75;2.97;;;;;;;11.87;51.47;99859.22;5082915;28;20048;-95
2022/09/11 07:39:05;;;;;;;4.57;2.30;;;;;;;12.02;52.01;99862.53;5074227;28;20041;-92
2022/09/11 07:41:42;;;;;;;4.93;1.90;;;;;;;12.13;51.52;99814.31;5078983;28;20088;-92
2022/09/11 07:44:15;;;;;;;3.05;1.80;;;;;;;12.75;50.77;99850.50;5095891;28;20072;-93
2022/09/11 07:46:41;;;;;;;1.30;1.20;;;;;;;12.93;50.04;99817.75;5080538;28;20079;-93
2022/09/11 07:49:10;;;;;;;1.15;0.80;;;;;;;13.05;49.49;99830.16;5092302;28;20053;-94
2022/09/11 07:51:38;;;;;;;0.90;0.90;;;;;;;13.52;48.12;99839.66;5079109;28;20044;-96
2022/09/11 07:54:06;;;;;;;2.03;1.10;;;;;;;13.64;47.69;99848.50;5077470;28;20048;-93
2022/09/11 07:56:33;;;;;;;0.82;0.70;;;;;;;13.87;47.11;99843.03;5059360;28;20556;-94
2022/09/11 07:59:01;;;;;;;1.13;0.70;;;;;;;14.34;47.52;99833.53;5060905;28;20040;-94
2022/09/11 08:01:30;;;;;;;1.08;0.98;;;;;;;14.85;45.83;99855.97;5059276;28;20132;-93
2022/09/11 08:04:02;;;;;;;0.82;0.68;;;;;;;14.94;44.74;99849.75;5055068;28;20060;-94
2022/09/11 08:06:32;;;;;;;0.95;0.80;;;;;;;14.95;43.51;99830.75;5074111;28;20048;-93
2022/09/11 08:09:07;;;;;;;2.30;0.80;;;;;;;15.35;43.78;99842.44;5092654;28;20036;-93
2022/09/11 08:11:41;;;;;;;3.47;0.80;;;;;;;15.70;42.55;99848.13;5079919;28;20075;-93
2022/09/11 08:14:12;;;;;;;1.45;0.80;;;;;;;16.02;42.24;99842.44;5060820;28;20048;-93
2022/09/11 08:16:40;;;;;;;0.93;0.70;;;;;;;16.27;42.21;99824.72;5063083;28;20044;-94
2022/09/11 08:19:08;;;;;;;0.70;0.68;;;;;;;16.52;40.50;99827.75;5062298;28;20052;-92
2022/09/11 08:21:35;;;;;;;0.70;0.70;;;;;;;15.96;40.68;99818.72;5082587;28;20071;-94
2022/09/11 08:24:02;;;;;;;0.75;0.75;;;;;;;16.01;40.50;99848.78;5077349;28;20066;-94
2022/09/11 08:26:30;;;;;;;1.55;0.80;;;;;;;15.87;40.69;99821.44;5059759;28;20068;-94
2022/09/11 08:28:58;;;;;;;1.00;1.00;;;;;;;16.30;40.82;99836.25;5063617;28;20062;-95
2022/09/11 08:31:27;;;;;;;1.85;0.85;;;;;;;16.48;39.76;99831.75;5069258;28;20059;-95
2022/09/11 08:33:59;;;;;;;;;;;;;;;16.70;39.79;99847.56;5072638;28;20040;-93
2022/09/11 08:36:27;;;;;;;0.70;0.70;;;;;;;16.42;38.66;99797.28;5089485;28;19916;-93
2022/09/11 08:38:54;;;;;;;0.50;0.50;;;;;;;16.45;39.00;99807.78;5047660;28;20044;-94
2022/09/11 08:41:22;;;;;;;0.65;0.65;;;;;;;16.85;38.23;99844.38;5086731;28;20131;-93
2022/09/11 08:44:01;;;;;;;2.00;0.93;;;;;;;16.99;38.11;99836.63;5070156;28;20052;-93
2022/09/11 08:46:34;;;;;;;0.60;0.60;;;;;;;16.93;38.44;99825.59;5065891;28;20103;-93
2022/09/11 08:49:09;;;;;;;2.53;1.00;;;;;;;16.73;37.53;99836.47;5082360;28;20491;-93
2022/09/11 08:51:36;;;;;;;0.55;0.55;;;;;;;16.44;37.88;99842.00;5064773;28;20045;-93
2022/09/11 08:54:03;;;;;;;2.47;0.90;;;;;;;16.39;38.60;99844.28;5065286;28;20162;-94
2022/09/11 08:56:35;;;;;;;2.97;0.68;;;;;;;16.33;38.92;99838.66;5067252;28;20044;-94
2022/09/11 08:59:20;;;;;;;2.13;0.80;;;;;;;15.95;39.38;99848.53;5082070;28;20064;-93
2022/09/11 09:01:59;;;;;;;2.83;0.93;;;;;;;15.41;39.81;99849.94;5082876;28;20048;-94
2022/09/11 09:04:40;;;;;;;3.40;0.80;;;;;;;15.03;40.80;99849.75;5067158;28;20068;-94
2022/09/11 09:07:42;;;;;;;0.88;0.85;;;;;;;15.05;41.19;99842.41;5082771;28;20052;-95
2022/09/11 09:10:41;;;;;;;1.67;1.48;;;;;;;15.09;41.74;99848.38;5059148;28;20041;-93
2022/09/11 09:13:07;;;;;;;3.60;0.60;;;;;;;15.17;41.19;99851.22;5057895;28;20052;-93
2022/09/11 09:15:41;;;;;;;1.98;1.00;;;;;;;15.43;41.05;99851.53;5063284;28;20059;-91
2022/09/11 09:18:24;;;;;;;2.90;1.17;;;;;;;15.73;40.59;99842.47;5073538;28;20036;-93
2022/09/11 09:21:01;;;;;;;0.85;0.80;;;;;;;15.70;39.60;99831.97;5079909;28;20112;-92
2022/09/11 09:23:35;;;;;;;0.90;0.90;;;;;;;15.74;40.47;99833.38;5079015;28;20111;-93
2022/09/11 09:26:01;;;;;;;5.22;1.00;;;;;;;16.15;40.23;99842.09;5063517;28;20085;-93
2022/09/11 09:28:38;;;;;;;4.40;1.30;;;;;;;16.75;39.90;99844.44;5078593;28;20071;-93
2022/09/11 09:31:11;;;;;;;2.05;1.50;;;;;;;17.13;39.48;99832.56;5061451;28;20089;-92
2022/09/11 09:33:48;;;;;;;2.10;0.80;;;;;;;17.33;39.06;99833.25;5060967;28;20052;-94
2022/09/11 09:36:19;;;;;;;0.70;0.70;;;;;;;17.45;39.06;99831.16;5078921;28;20036;-93
2022/09/11 09:38:47;;;;;;;2.15;0.90;;;;;;;17.91;38.86;99840.06;5063918;28;20079;-94
2022/09/11 09:41:42;;;;;;;2.85;0.63;;;;;;;18.23;38.23;99838.56;5079218;28;20050;-92
2022/09/11 09:44:17;;;;;;;0.70;0.70;;;;;;;18.34;38.05;99839.13;5062675;28;20135;-92
2022/09/11 09:46:47;;;;;;;2.55;0.88;;;;;;;18.08;37.53;99828.31;5074162;28;20062;-94
2022/09/11 09:49:22;;;;;;;2.00;0.90;;;;;;;18.24;37.86;99837.53;5093744;28;20044;-93
2022/09/11 09:51:48;;;;;;;1.65;1.30;;;;;;;19.04;38.82;99830.84;5097235;28;20040;-94
2022/09/11 09:54:18;;;;;;;2.45;1.20;;;;;;;19.14;36.76;99828.84;5081533;28;20084;-93
2022/09/11 09:56:53;;;;;;;2.40;1.23;;;;;;;18.99;36.69;99827.75;5098396;28;20032;-94
2022/09/11 09:59:28;;;;;;;2.10;1.30;;;;;;;17.69;37.89;99807.06;5097732;28;20055;-92
2022/09/11 10:01:54;;;;;;;1.40;1.10;;;;;;;17.85;39.91;99816.31;5095708;28;20043;-93
2022/09/11 10:04:26;;;;;;;3.97;1.00;;;;;;;17.91;39.43;99830.06;5072644;28;20036;-93
2022/09/11 10:07:03;;;;;;;5.68;1.02;;;;;;;17.77;39.19;99822.53;5078250;28;20040;-93
2022/09/11 10:09:29;;;;;;;2.03;1.10;;;;;;;17.53;38.90;99822.31;5061017;28;20040;-94
2022/09/11 10:12:01;;;;;;;0.85;0.85;;;;;;;17.22;39.25;99831.63;5077838;28;20055;-94
2022/09/11 10:14:44;;;;;;;0.80;0.80;;;;;;;16.81;39.24;99841.13;5061032;28;20062;-92
2022/09/11 10:17:34;;;;;;;1.08;0.98;;;;;;;16.02;40.94;99837.03;5078528;28;20044;-91
2022/09/11 10:20:17;;;;;;;3.45;1.20;;;;;;;15.40;43.21;99850.94;5061481;28;20078;-93
2022/09/11 10:22:44;;;;;;;0.90;0.90;;;;;;;14.88;44.34;99855.69;5078154;28;20048;-92
2022/09/11 10:25:25;;;;;;;0.95;0.77;;;;;;;14.20;46.96;99866.13;5075611;28;20132;-93
2022/09/11 10:28:14;;;;;;;1.48;1.00;;;;;;;13.87;48.18;99843.88;5080331;28;20036;-93
2022/09/11 10:30:46;;;;;;;3.50;1.50;;;;;;;13.92;47.90;99851.56;5060642;28;20052;-93
2022/09/11 10:33:38;;;;;;;2.70;1.40;;;;;;;13.85;48.59;99856.59;5060316;28;20045;-93
2022/09/11 10:36:08;;;;;;;1.40;1.30;;;;;;;13.83;48.93;99854.03;5042620;28;20048;-90
2022/09/11 10:38:43;;;;;;;1.90;1.40;;;;;;;13.89;48.99;99854.50;5059687;28;20044;-91
2022/09/11 10:41:12;;;;;;;2.45;0.95;;;;;;;13.90;49.08;99853.50;5094194;28;20040;-94
2022/09/11 10:43:49;;;;;;;2.13;1.00;;;;;;;13.93;48.87;99855.94;5042566;28;20416;-93
2022/09/11 10:46:21;;;;;;;1.08;0.98;;;;;;;14.07;48.57;99855.59;5059072;28;20040;-93
2022/09/11 10:48:56;;;;;;;1.05;0.98;;;;;;;14.26;47.59;99836.03;5061534;28;20419;-94
2022/09/11 10:51:25;;;;;;;2.35;2.03;;;;;;;14.32;47.52;99833.63;5059089;28;20044;-92
2022/09/11 10:54:09;;;;;;;1.40;1.20;;;;;;;14.54;47.65;99847.94;5057385;28;20052;-91
2022/09/11 10:56:44;;;;;;;2.60;0.90;;;;;;;14.88;47.05;99832.31;5057592;28;20388;-91
2022/09/11 10:59:21;;;;;;;0.88;0.73;;;;;;;15.55;45.96;99839.59;5078254;28;20044;-91
2022/09/11 11:01:48;;;;;;;0.90;0.90;;;;;;;15.83;44.70;99831.66;5079626;28;20051;-91
2022/09/11 11:04:15;;;;;;;1.15;1.00;;;;;;;15.87;44.32;99832.22;5092413;28;20044;-92
2022/09/11 11:06:55;;;;;;;3.15;1.08;;;;;;;16.06;44.31;99853.78;5069723;28;20102;-89
2022/09/11 11:09:37;;;;;;;1.85;1.10;;;;;;;16.99;43.07;99851.97;5075783;28;20044;-90
2022/09/11 11:12:48;;;;;;;2.25;1.45;;;;;;;17.90;41.10;99844.63;5063645;28;20048;-91
2022/09/11 11:15:44;;;;;;;1.40;1.27;;;;;;;19.34;39.47;99836.66;5065366;28;20052;-93
2022/09/11 11:18:16;;;;;;;1.60;1.10;;;;;;;20.61;36.10;99815.19;5040135;28;20058;-92
2022/09/11 11:21:26;;;;;;;1.15;1.08;;;;;;;21.15;34.63;99838.03;5069432;28;20049;-94
2022/09/11 11:24:11;;;;;;;1.08;1.00;;;;;;;20.98;34.57;99824.50;5051929;28;20139;-93
2022/09/11 11:26:37;;;;;;;1.02;0.88;;;;;;;20.60;34.86;99829.78;5057008;28;20044;-92
2022/09/11 11:29:25;;;;;;;0.93;0.82;;;;;;;20.27;34.82;99833.59;5073664;28;20136;-92
2022/09/11 11:31:56;;;;;;;1.00;0.95;;;;;;;20.54;34.62;99829.66;5073715;28;20079;-92
2022/09/11 11:34:42;;;;;;;2.60;0.82;;;;;;;20.83;33.90;99839.88;5056782;28;20045;-93
2022/09/11 11:37:23;;;;;;;1.13;1.02;;;;;;;20.46;33.76;99811.50;5058363;28;20040;-93
2022/09/11 11:40:00;;;;;;;1.30;0.90;;;;;;;20.37;33.92;99823.38;5072483;28;20052;-93
2022/09/11 11:42:33;;;;;;;2.65;1.13;;;;;;;20.36;33.86;99821.69;5087037;28;20036;-92
2022/09/11 11:45:24;;;;;;;1.17;0.90;;;;;;;20.91;33.71;99829.00;5078992;28;20053;-92
2022/09/11 11:47:52;;;;;;;1.00;0.90;;;;;;;21.28;33.11;99814.63;5076981;28;20507;-94
2022/09/11 11:50:24;;;;;;;0.77;0.77;;;;;;;21.38;32.44;99811.72;5103513;28;20082;-91
2022/09/11 11:53:09;;;;;;;1.40;0.70;;;;;;;20.57;33.47;99830.16;5090195;28;20055;-91
2022/09/11 11:55:50;;;;;;;1.42;0.70;;;;;;;20.51;33.80;99830.84;5072355;28;20094;-90
2022/09/11 11:59:06;;;;;;;0.73;0.73;;;;;;;20.67;33.14;99834.53;5071973;28;20028;-90
2022/09/11 12:01:43;;;;;;;0.77;0.77;;;;;;;20.64;32.79;99832.16;5048371;28;20130;-93